Aeroporto :
LOGIN :

Iscrizione | Disclaimer

   EN    FR    IT 

 










Sommario :    VFR   VFR Marginale   IFR   IFR Intensivo   IFR Molto Intensivo
Visibilità : 
Base nubi : 
>= 8 km
>= 3000ft
5 / 8 km
1000 / 3000 ft
1500m / 5 km
500 / 1000 ft
800 / 1500m
200 / 500 ft
< 800m
< 200 ft
Simboli :   Temporali  Nebbia  Neve Forte  Precipitazioni Forti  Vento > 20 kt
SIGMETs :   Varie  Temporali  Ghiacco  Turbolenza  Onda orograficha  Ceneri Vulcaniche







- Altitudine del aeroporto : 659 ft
- Codice IATA : LYN
- Carte del aeroporto


LFLY - Lyon Bron

ULTIMO METAR :
  • 170730Z AUTO 33006KT 280V020 CAVOK 23/14 Q1018 NOSIG

METARs OBSOLETI :
  • 170700Z AUTO 32007KT CAVOK 23/14 Q1017 NOSIG
  • 170630Z AUTO 33010KT CAVOK 22/14 Q1017 NOSIG
  • 170600Z AUTO 32010KT CAVOK 22/14 Q1017 NOSIG
  • 170530Z AUTO 31010KT CAVOK 21/14 Q1017 NOSIG
  • 170500Z AUTO 31008KT CAVOK 21/14 Q1017 NOSIG
  • 170430Z AUTO 00000KT CAVOK 19/14 Q1017 NOSIG

TAF TAF LFLY
Valido dal 17 a 06 ore il 18 a 06 ore UTC


170500Z 1706/1806 35009KT CAVOK
ATIS : +33 4 72 15 87 96
Nessun NOTAM noto per questo aeroporto.



MetMap, La meteo Aeronautica in un colpo d'occhio ! - Copyright ORBIFLY Dicembre 2007 - Disclaimer

ORBIFLY MET'MAP TEAM :

Programmazione e sviluppo : Alexandra Zaïnal
Concezione e sviluppo : Baudouin d'Aumeries
Co-Programmazione e sviluppo : Marc-Olivier Méhu
Supporto tecnico e logistico : Manuel Goepfert
Aiuto per la traduzione : Arnaldo La Scala

Contatto : metmap@orbifly.com




FONTI E CREDITI :

   NOAA